createdAt,value
2023-04-26T00:02:27.744Z,4.60
2023-04-26T00:05:05.980Z,4.65
2023-04-26T00:07:33.379Z,4.66
2023-04-26T00:10:02.195Z,4.36
2023-04-26T00:12:29.702Z,4.44
2023-04-26T00:14:57.209Z,4.26
2023-04-26T00:17:25.660Z,4.06
2023-04-26T00:19:53.157Z,3.69
2023-04-26T00:22:20.619Z,3.51
2023-04-26T00:24:50.221Z,3.61
2023-04-26T00:27:18.448Z,3.57
2023-04-26T00:29:45.501Z,3.28
2023-04-26T00:32:13.025Z,3.16
2023-04-26T00:34:41.590Z,3.22
2023-04-26T00:37:09.865Z,3.09
2023-04-26T00:39:37.548Z,3.06
2023-04-26T00:42:05.013Z,3.01
2023-04-26T00:44:33.333Z,3.01
2023-04-26T00:47:01.992Z,3.03
2023-04-26T00:49:30.254Z,3.16
2023-04-26T00:51:58.631Z,3.40
2023-04-26T00:54:26.993Z,3.62
2023-04-26T00:56:54.889Z,3.67
2023-04-26T00:59:22.720Z,3.57
2023-04-26T01:01:50.012Z,3.55
2023-04-26T01:04:21.222Z,3.79
2023-04-26T01:06:49.972Z,3.80
2023-04-26T01:09:19.369Z,3.63
2023-04-26T01:11:47.542Z,3.37
2023-04-26T01:14:16.734Z,3.13
2023-04-26T01:16:47.235Z,3.02
2023-04-26T01:19:15.504Z,2.81
2023-04-26T01:21:43.672Z,2.79
2023-04-26T01:24:12.654Z,2.80
2023-04-26T01:26:46.056Z,2.88
2023-04-26T01:29:21.666Z,3.04
2023-04-26T01:31:50.059Z,3.07
2023-04-26T01:34:19.253Z,3.14
2023-04-26T01:36:46.812Z,3.14
2023-04-26T01:39:14.295Z,3.16
2023-04-26T01:41:41.786Z,3.09
2023-04-26T01:44:09.223Z,3.02
2023-04-26T01:46:36.781Z,3.00
2023-04-26T01:49:05.549Z,2.85
2023-04-26T01:51:34.540Z,2.83
2023-04-26T01:54:02.425Z,2.61
2023-04-26T01:56:30.079Z,2.53
2023-04-26T01:58:57.767Z,2.56
2023-04-26T02:01:27.497Z,2.43
2023-04-26T02:03:55.015Z,2.36
2023-04-26T02:06:22.492Z,2.33
2023-04-26T02:08:50.187Z,2.14
2023-04-26T02:11:17.936Z,2.16
2023-04-26T02:13:45.448Z,2.19
2023-04-26T02:16:12.778Z,2.12
2023-04-26T02:18:41.936Z,2.06
2023-04-26T02:21:12.111Z,1.98
2023-04-26T02:23:39.309Z,1.91
2023-04-26T02:26:06.789Z,2.13
2023-04-26T02:28:35.147Z,2.14
2023-04-26T02:31:03.216Z,2.16
2023-04-26T02:33:30.936Z,2.21
2023-04-26T02:35:58.982Z,2.14
2023-04-26T02:38:35.727Z,2.10
2023-04-26T02:41:04.173Z,2.04
2023-04-26T02:43:32.982Z,2.03
2023-04-26T02:46:01.683Z,1.90
2023-04-26T02:48:29.179Z,1.69
2023-04-26T02:50:57.665Z,1.65
2023-04-26T02:53:25.065Z,1.60
2023-04-26T02:55:53.627Z,1.61
2023-04-26T02:58:21.655Z,1.59
2023-04-26T03:00:49.081Z,1.60
2023-04-26T03:03:24.942Z,1.54
2023-04-26T03:05:52.217Z,1.55
2023-04-26T03:08:20.668Z,1.57
2023-04-26T03:10:48.097Z,1.54
2023-04-26T03:13:15.581Z,1.52
2023-04-26T03:15:46.828Z,1.49
2023-04-26T03:18:14.097Z,1.56
2023-04-26T03:20:42.643Z,1.54
2023-04-26T03:23:09.937Z,1.60
2023-04-26T03:25:37.891Z,1.57
2023-04-26T03:28:05.491Z,1.55
2023-04-26T03:30:32.902Z,1.57
2023-04-26T03:33:00.973Z,1.50
2023-04-26T03:35:30.260Z,1.50
2023-04-26T03:38:03.980Z,1.45
2023-04-26T03:40:31.057Z,1.55
2023-04-26T03:43:08.781Z,1.56
2023-04-26T03:45:37.096Z,1.53
2023-04-26T03:48:04.727Z,1.55
2023-04-26T03:50:32.096Z,1.50
2023-04-26T03:52:59.701Z,1.48
2023-04-26T03:55:27.102Z,1.47
2023-04-26T03:57:54.522Z,1.51
2023-04-26T04:00:23.100Z,1.55
2023-04-26T04:02:50.357Z,1.57
2023-04-26T04:05:17.981Z,1.63
2023-04-26T04:07:46.621Z,1.75
2023-04-26T04:10:19.501Z,1.83
2023-04-26T04:12:47.919Z,1.94
2023-04-26T04:15:15.507Z,2.03
2023-04-26T04:17:43.970Z,2.15
2023-04-26T04:20:14.228Z,2.28
2023-04-26T04:22:41.492Z,2.37
2023-04-26T04:25:15.102Z,2.47
2023-04-26T04:27:43.896Z,2.65
2023-04-26T04:30:12.794Z,2.98
2023-04-26T04:32:40.597Z,3.24
2023-04-26T04:35:08.218Z,3.43
2023-04-26T04:37:35.318Z,3.65
2023-04-26T04:40:02.896Z,3.79
2023-04-26T04:42:30.318Z,3.89
2023-04-26T04:45:00.178Z,3.96
2023-04-26T04:47:27.318Z,4.05
2023-04-26T04:49:55.696Z,4.13
2023-04-26T04:52:30.245Z,4.17
2023-04-26T04:54:57.784Z,4.24
2023-04-26T04:57:25.295Z,4.24
2023-04-26T04:59:52.699Z,4.32
2023-04-26T05:02:20.584Z,4.43
2023-04-26T05:04:48.509Z,4.41
2023-04-26T05:07:16.137Z,4.50
2023-04-26T05:09:43.539Z,4.50
2023-04-26T05:12:11.153Z,4.58
2023-04-26T05:14:41.315Z,4.59
2023-04-26T05:17:08.444Z,4.67
2023-04-26T05:19:35.959Z,4.65
2023-04-26T05:22:03.402Z,4.69
2023-04-26T05:24:31.958Z,4.72
2023-04-26T05:27:00.395Z,4.73
2023-04-26T05:29:33.902Z,4.85
2023-04-26T05:32:01.284Z,4.79
2023-04-26T05:34:28.865Z,4.90
2023-04-26T05:36:58.478Z,4.95
2023-04-26T05:39:25.919Z,5.05
2023-04-26T05:41:53.245Z,5.15
2023-04-26T05:44:21.805Z,5.18
2023-04-26T05:46:51.405Z,5.20
2023-04-26T05:49:18.750Z,5.15
2023-04-26T05:51:46.355Z,5.10
2023-04-26T05:54:13.704Z,5.16
2023-04-26T05:56:47.304Z,5.30
2023-04-26T05:59:14.603Z,5.30
2023-04-26T06:01:41.807Z,5.18
2023-04-26T06:04:09.743Z,5.18
2023-04-26T06:06:37.666Z,5.28
2023-04-26T06:09:07.110Z,5.38
2023-04-26T06:11:34.508Z,5.38
2023-04-26T06:14:03.020Z,5.29
2023-04-26T06:16:32.466Z,5.55
2023-04-26T06:18:59.984Z,5.64
2023-04-26T06:21:27.617Z,5.75
2023-04-26T06:23:55.436Z,5.78
2023-04-26T06:26:22.859Z,5.64
2023-04-26T06:28:50.301Z,5.75
2023-04-26T06:31:17.847Z,5.92
2023-04-26T06:33:45.187Z,6.01
2023-04-26T06:36:13.746Z,6.05
2023-04-26T06:38:42.228Z,5.89
2023-04-26T06:41:09.741Z,5.93
2023-04-26T06:43:37.025Z,6.01
2023-04-26T06:46:05.159Z,6.05
2023-04-26T06:48:34.583Z,6.24
2023-04-26T06:51:06.880Z,6.29
2023-04-26T06:53:37.952Z,6.35
2023-04-26T06:56:05.506Z,6.51
2023-04-26T06:58:32.707Z,6.54
2023-04-26T07:01:00.121Z,6.27
2023-04-26T07:03:27.736Z,6.12
2023-04-26T07:05:56.958Z,6.12
2023-04-26T07:08:25.601Z,6.14
2023-04-26T07:10:59.230Z,6.38
2023-04-26T07:13:26.669Z,6.32
2023-04-26T07:15:53.972Z,6.41
2023-04-26T07:18:21.494Z,6.39
2023-04-26T07:20:49.840Z,6.77
2023-04-26T07:23:16.956Z,6.84
2023-04-26T07:25:44.328Z,7.04
2023-04-26T07:28:11.886Z,7.23
2023-04-26T07:30:39.430Z,7.02
2023-04-26T07:33:07.819Z,6.70
2023-04-26T07:35:36.414Z,6.76
2023-04-26T07:38:04.679Z,6.74
2023-04-26T07:40:32.089Z,6.58
2023-04-26T07:42:59.573Z,6.61
2023-04-26T07:45:28.374Z,6.82
2023-04-26T07:47:55.477Z,6.99
2023-04-26T07:50:28.641Z,6.98
2023-04-26T07:52:57.142Z,7.26
2023-04-26T07:55:24.786Z,7.45
2023-04-26T07:57:51.992Z,7.55
2023-04-26T08:00:22.699Z,7.33
2023-04-26T08:02:50.505Z,7.39
2023-04-26T08:05:18.234Z,7.26
2023-04-26T08:07:45.429Z,7.13
2023-04-26T08:10:12.918Z,7.00
2023-04-26T08:12:40.586Z,7.05
2023-04-26T08:15:08.645Z,7.36
2023-04-26T08:17:35.809Z,7.60
2023-04-26T08:20:06.520Z,7.87
2023-04-26T08:22:34.776Z,7.66
2023-04-26T08:25:02.296Z,7.57
2023-04-26T08:27:32.155Z,7.48
2023-04-26T08:29:59.256Z,7.67
2023-04-26T08:32:26.915Z,7.92
2023-04-26T08:34:56.119Z,8.29
2023-04-26T08:37:23.584Z,8.56
2023-04-26T08:39:51.107Z,8.38
2023-04-26T08:42:21.897Z,7.92
2023-04-26T08:44:52.383Z,7.59
2023-04-26T08:47:32.255Z,7.83
2023-04-26T08:50:03.149Z,8.11
2023-04-26T08:52:33.134Z,8.23
2023-04-26T08:55:01.392Z,8.30
2023-04-26T08:57:33.217Z,8.63
2023-04-26T09:00:10.185Z,8.24
2023-04-26T09:02:37.508Z,7.93
2023-04-26T09:05:07.888Z,8.10
2023-04-26T09:08:05.656Z,8.39
2023-04-26T09:10:33.466Z,8.61
2023-04-26T09:13:01.792Z,8.64
2023-04-26T09:15:29.265Z,8.52
2023-04-26T09:17:56.626Z,8.52
2023-04-26T09:20:31.583Z,8.68
2023-04-26T09:23:10.674Z,8.90
2023-04-26T09:25:38.537Z,8.84
2023-04-26T09:28:21.766Z,8.60
2023-04-26T09:30:50.004Z,8.92
2023-04-26T09:33:19.999Z,8.80
2023-04-26T09:35:47.348Z,8.46
2023-04-26T09:38:17.955Z,8.10
2023-04-26T09:40:47.518Z,8.05
2023-04-26T09:43:21.627Z,8.67
2023-04-26T09:45:57.704Z,8.76
2023-04-26T09:48:32.501Z,8.97
2023-04-26T09:51:12.592Z,8.86
2023-04-26T09:53:46.811Z,8.82
2023-04-26T09:56:19.155Z,8.60
2023-04-26T09:58:59.101Z,9.11
2023-04-26T10:01:33.942Z,9.32
2023-04-26T10:04:05.181Z,9.49
2023-04-26T10:06:33.388Z,9.46
2023-04-26T10:09:02.261Z,9.35
2023-04-26T10:11:30.918Z,9.48
2023-04-26T10:13:59.181Z,8.86
2023-04-26T10:16:26.725Z,8.81
2023-04-26T10:18:54.904Z,8.75
2023-04-26T10:21:31.882Z,9.45
2023-04-26T10:24:08.059Z,9.51
2023-04-26T10:26:57.275Z,8.81
2023-04-26T10:29:27.377Z,8.38
2023-04-26T10:32:17.015Z,8.82
2023-04-26T10:34:44.713Z,9.28
2023-04-26T10:37:15.592Z,9.85
2023-04-26T10:39:47.342Z,10.01
2023-04-26T10:42:31.147Z,9.50
2023-04-26T10:44:59.787Z,9.00
2023-04-26T10:47:37.609Z,9.45
2023-04-26T10:50:11.202Z,9.41
2023-04-26T10:53:07.234Z,9.70
2023-04-26T10:55:43.988Z,9.82
2023-04-26T10:58:41.830Z,10.70
2023-04-26T11:01:17.187Z,11.00
2023-04-26T11:04:05.492Z,10.51
2023-04-26T11:06:50.044Z,9.78
2023-04-26T11:09:41.056Z,9.34
2023-04-26T11:12:15.959Z,8.98
2023-04-26T11:14:46.447Z,9.01
2023-04-26T11:17:13.981Z,9.21
2023-04-26T11:19:47.816Z,9.58
2023-04-26T11:22:16.744Z,10.31
2023-04-26T11:24:45.080Z,10.33
2023-04-26T11:27:12.511Z,11.16
2023-04-26T11:29:40.105Z,11.03
2023-04-26T11:32:07.394Z,10.70
2023-04-26T11:34:36.201Z,10.35
2023-04-26T11:37:05.164Z,9.96
2023-04-26T11:39:37.280Z,9.55
2023-04-26T11:42:12.225Z,9.36
2023-04-26T11:44:42.051Z,8.87
2023-04-26T11:47:09.980Z,8.86
2023-04-26T11:49:38.489Z,9.50
2023-04-26T11:52:06.998Z,10.13
2023-04-26T11:54:36.168Z,10.86
2023-04-26T11:57:16.704Z,11.35
2023-04-26T11:59:50.847Z,10.87
2023-04-26T12:02:19.402Z,9.28
2023-04-26T12:04:47.051Z,9.97
2023-04-26T12:07:19.201Z,11.03
2023-04-26T12:09:46.387Z,11.67
2023-04-26T12:12:19.895Z,10.45
2023-04-26T12:14:47.934Z,9.71
2023-04-26T12:17:16.139Z,10.32
2023-04-26T12:19:44.295Z,10.57
2023-04-26T12:22:11.771Z,10.44
2023-04-26T12:24:39.414Z,10.97
2023-04-26T12:27:07.423Z,11.56
2023-04-26T12:29:36.256Z,12.51
2023-04-26T12:32:04.480Z,12.80
2023-04-26T12:34:32.150Z,13.18
2023-04-26T12:36:59.599Z,12.95
2023-04-26T12:39:27.111Z,11.29
2023-04-26T12:41:55.541Z,10.12
2023-04-26T12:44:23.128Z,9.75
2023-04-26T12:46:51.549Z,9.39
2023-04-26T12:49:20.008Z,9.16
2023-04-26T12:51:47.588Z,8.54
2023-04-26T12:54:16.106Z,8.89
2023-04-26T12:56:49.845Z,9.22
2023-04-26T12:59:17.060Z,9.67
2023-04-26T13:01:44.418Z,10.47
2023-04-26T13:04:12.188Z,11.05
2023-04-26T13:06:40.131Z,11.48
2023-04-26T13:09:08.835Z,11.52
2023-04-26T13:11:37.496Z,12.11
2023-04-26T13:14:10.930Z,12.96
2023-04-26T13:16:42.630Z,12.99
2023-04-26T13:19:12.818Z,12.90
2023-04-26T13:21:41.197Z,13.16
2023-04-26T13:24:08.559Z,12.93
2023-04-26T13:26:35.880Z,12.52
2023-04-26T13:29:04.771Z,11.92
2023-04-26T13:31:32.586Z,11.91
2023-04-26T13:34:01.856Z,11.77
2023-04-26T13:36:29.603Z,11.94
2023-04-26T13:38:57.824Z,12.83
2023-04-26T13:41:25.199Z,13.50
2023-04-26T13:43:52.684Z,13.93
2023-04-26T13:46:20.364Z,14.14
2023-04-26T13:48:47.551Z,13.29
2023-04-26T13:51:15.745Z,11.79
2023-04-26T13:53:49.170Z,12.80
2023-04-26T13:56:18.151Z,12.86
2023-04-26T13:58:45.819Z,12.50
2023-04-26T14:01:14.375Z,12.25
2023-04-26T14:03:43.048Z,12.58
2023-04-26T14:06:24.049Z,11.78
2023-04-26T14:08:52.116Z,11.48
2023-04-26T14:11:25.641Z,11.36
2023-04-26T14:13:56.308Z,11.91
2023-04-26T14:16:24.964Z,11.93
2023-04-26T14:18:52.693Z,12.04
2023-04-26T14:21:20.315Z,12.25
2023-04-26T14:23:47.910Z,12.34
2023-04-26T14:26:15.444Z,12.34
2023-04-26T14:28:42.898Z,12.95
2023-04-26T14:31:10.369Z,13.17
2023-04-26T14:33:37.831Z,13.59
2023-04-26T14:36:07.613Z,12.25
2023-04-26T14:38:35.204Z,12.29
2023-04-26T14:41:02.725Z,11.95
2023-04-26T14:43:30.411Z,11.85
2023-04-26T14:45:58.824Z,11.77
2023-04-26T14:48:26.546Z,11.88
2023-04-26T14:51:01.523Z,12.20
2023-04-26T14:53:29.141Z,12.95
2023-04-26T14:56:00.031Z,12.93
2023-04-26T14:58:28.481Z,13.33
2023-04-26T15:00:55.978Z,13.19
2023-04-26T15:03:23.284Z,12.83
2023-04-26T15:05:51.078Z,12.18
2023-04-26T15:08:18.916Z,11.55
2023-04-26T15:10:47.019Z,10.56
2023-04-26T15:13:14.616Z,9.80
2023-04-26T15:15:42.470Z,10.17
2023-04-26T15:18:15.619Z,10.75
2023-04-26T15:20:48.708Z,11.15
2023-04-26T15:23:16.652Z,11.52
2023-04-26T15:25:44.160Z,12.21
2023-04-26T15:28:11.902Z,12.03
2023-04-26T15:30:39.139Z,11.46
2023-04-26T15:33:07.211Z,11.05
2023-04-26T15:35:34.652Z,10.71
2023-04-26T15:38:02.416Z,10.40
2023-04-26T15:40:29.549Z,10.29
2023-04-26T15:42:57.071Z,10.33
2023-04-26T15:45:26.570Z,10.71
2023-04-26T15:47:54.923Z,11.46
2023-04-26T15:50:22.655Z,12.18
2023-04-26T15:52:50.056Z,12.51
2023-04-26T15:55:18.385Z,12.45
2023-04-26T15:57:52.527Z,12.95
2023-04-26T16:00:21.875Z,13.28
2023-04-26T16:02:49.252Z,12.64
2023-04-26T16:05:19.594Z,12.53
2023-04-26T16:07:47.070Z,12.71
2023-04-26T16:10:15.401Z,12.11
2023-04-26T16:12:44.822Z,11.61
2023-04-26T16:15:12.353Z,11.21
2023-04-26T16:17:39.681Z,11.29
2023-04-26T16:20:13.388Z,11.53
2023-04-26T16:22:40.588Z,11.52
2023-04-26T16:25:09.223Z,11.42
2023-04-26T16:27:37.755Z,11.54
2023-04-26T16:30:05.948Z,11.40
2023-04-26T16:32:39.320Z,11.42
2023-04-26T16:35:07.115Z,11.01
2023-04-26T16:37:34.959Z,11.19
2023-04-26T16:40:02.307Z,11.05
2023-04-26T16:42:30.526Z,11.27
2023-04-26T16:44:58.422Z,10.86
2023-04-26T16:47:27.173Z,10.82
2023-04-26T16:49:54.516Z,10.60
2023-04-26T16:52:22.293Z,10.47
2023-04-26T16:54:49.547Z,10.40
2023-04-26T16:57:17.867Z,10.51
2023-04-26T16:59:45.559Z,10.20
2023-04-26T17:02:14.222Z,10.37
2023-04-26T17:04:42.373Z,10.50
2023-04-26T17:07:11.141Z,10.26
2023-04-26T17:09:40.201Z,9.91
2023-04-26T17:12:07.813Z,9.76
2023-04-26T17:14:36.616Z,9.32
2023-04-26T17:17:03.786Z,9.17
2023-04-26T17:19:32.701Z,9.17
2023-04-26T17:22:00.485Z,9.11
2023-04-26T17:24:28.897Z,9.17
2023-04-26T17:26:56.432Z,9.19
2023-04-26T17:29:27.301Z,9.07
2023-04-26T17:31:55.494Z,8.92
2023-04-26T17:34:23.173Z,8.88
2023-04-26T17:36:53.350Z,8.76
2023-04-26T17:39:20.872Z,8.55
2023-04-26T17:41:48.463Z,8.45
2023-04-26T17:44:16.781Z,8.45
2023-04-26T17:46:50.260Z,8.45
2023-04-26T17:49:17.869Z,8.18
2023-04-26T17:51:45.748Z,8.19
2023-04-26T17:54:14.957Z,8.20
2023-04-26T17:56:43.743Z,8.05
2023-04-26T17:59:11.628Z,8.16
2023-04-26T18:01:39.482Z,8.10
2023-04-26T18:04:07.960Z,8.01
2023-04-26T18:06:37.465Z,7.94
2023-04-26T18:09:18.072Z,7.89
2023-04-26T18:11:48.709Z,7.81
2023-04-26T18:14:17.015Z,7.75
2023-04-26T18:16:44.861Z,7.70
2023-04-26T18:19:13.259Z,7.60
2023-04-26T18:21:52.692Z,7.59
2023-04-26T18:24:22.445Z,7.44
2023-04-26T18:26:50.002Z,7.41
2023-04-26T18:29:17.915Z,7.45
2023-04-26T18:31:46.554Z,7.43
2023-04-26T18:34:14.269Z,7.52
2023-04-26T18:36:42.422Z,7.48
2023-04-26T18:39:10.214Z,7.42
2023-04-26T18:41:38.224Z,7.39
2023-04-26T18:44:13.945Z,7.32
2023-04-26T18:46:43.604Z,7.28
2023-04-26T18:49:17.618Z,7.36
2023-04-26T18:51:46.702Z,7.28
2023-04-26T18:54:14.614Z,7.21
2023-04-26T18:56:43.162Z,7.04
2023-04-26T18:59:11.098Z,7.20
2023-04-26T19:01:39.398Z,7.16
2023-04-26T19:04:09.329Z,7.20
2023-04-26T19:06:42.693Z,7.29
2023-04-26T19:09:13.393Z,7.21
2023-04-26T19:11:41.382Z,7.15
2023-04-26T19:14:10.549Z,6.67
2023-04-26T19:16:39.293Z,6.35
2023-04-26T19:19:07.470Z,5.91
2023-04-26T19:21:35.967Z,5.79
2023-04-26T19:24:06.356Z,5.53
2023-04-26T19:26:34.286Z,5.80
2023-04-26T19:29:06.090Z,5.97
2023-04-26T19:31:34.700Z,6.23
2023-04-26T19:34:04.230Z,6.26
2023-04-26T19:36:35.812Z,6.33
2023-04-26T19:39:05.311Z,6.23
2023-04-26T19:41:33.270Z,6.20
2023-04-26T19:44:00.720Z,6.04
2023-04-26T19:46:30.645Z,5.92
2023-04-26T19:48:59.586Z,5.99
2023-04-26T19:51:30.266Z,5.79
2023-04-26T19:53:57.509Z,5.47
2023-04-26T19:56:28.380Z,5.26
2023-04-26T19:58:57.990Z,4.95
2023-04-26T20:01:33.791Z,4.98
2023-04-26T20:04:02.755Z,5.15
2023-04-26T20:06:30.634Z,5.01
2023-04-26T20:08:58.594Z,4.77
2023-04-26T20:11:28.028Z,4.87
2023-04-26T20:13:58.704Z,5.13
2023-04-26T20:16:35.433Z,5.16
2023-04-26T20:19:03.307Z,5.08
2023-04-26T20:21:31.210Z,4.82
2023-04-26T20:23:59.257Z,4.56
2023-04-26T20:26:28.187Z,4.32
2023-04-26T20:28:56.974Z,4.33
2023-04-26T20:31:25.037Z,4.27
2023-04-26T20:33:54.084Z,4.43
2023-04-26T20:36:21.754Z,4.62
2023-04-26T20:38:49.233Z,4.58
2023-04-26T20:41:16.898Z,4.52
2023-04-26T20:43:44.793Z,4.23
2023-04-26T20:46:12.097Z,4.36
2023-04-26T20:48:39.849Z,4.48
2023-04-26T20:51:07.430Z,4.46
2023-04-26T20:53:36.671Z,4.60
2023-04-26T20:56:04.153Z,4.55
2023-04-26T20:58:31.268Z,4.37
2023-04-26T21:00:59.843Z,4.40
2023-04-26T21:03:27.494Z,4.44
2023-04-26T21:05:55.568Z,4.50
2023-04-26T21:08:23.381Z,4.48
2023-04-26T21:10:51.640Z,4.36
2023-04-26T21:13:19.225Z,4.41
2023-04-26T21:15:47.510Z,4.25
2023-04-26T21:18:15.105Z,3.88
2023-04-26T21:20:42.523Z,3.69
2023-04-26T21:23:11.102Z,3.75
2023-04-26T21:25:38.380Z,3.69
2023-04-26T21:28:05.942Z,3.68
2023-04-26T21:30:33.549Z,3.67
2023-04-26T21:33:00.916Z,3.26
2023-04-26T21:35:28.305Z,3.18
2023-04-26T21:37:55.853Z,3.10
2023-04-26T21:40:24.227Z,3.06
2023-04-26T21:43:03.851Z,2.87
2023-04-26T21:45:32.471Z,2.94
2023-04-26T21:48:01.285Z,2.86
2023-04-26T21:50:28.903Z,2.92
2023-04-26T21:52:56.336Z,3.15
2023-04-26T21:55:23.818Z,3.23
2023-04-26T21:57:52.259Z,3.15
2023-04-26T22:00:20.052Z,3.02
2023-04-26T22:02:47.232Z,3.20
2023-04-26T22:05:23.012Z,3.35
2023-04-26T22:07:53.104Z,3.37
2023-04-26T22:10:20.486Z,3.25
2023-04-26T22:12:47.795Z,3.35
2023-04-26T22:15:15.359Z,3.32
2023-04-26T22:17:44.767Z,3.23
2023-04-26T22:20:12.719Z,3.36
2023-04-26T22:22:40.322Z,3.11
2023-04-26T22:25:08.982Z,3.12
2023-04-26T22:27:36.535Z,2.83
2023-04-26T22:30:20.475Z,2.66
2023-04-26T22:32:57.525Z,2.50
2023-04-26T22:35:31.273Z,2.51
2023-04-26T22:37:59.722Z,2.42
2023-04-26T22:40:27.095Z,2.38
2023-04-26T22:42:54.851Z,2.39
2023-04-26T22:45:23.132Z,2.43
2023-04-26T22:47:50.590Z,2.46
2023-04-26T22:50:24.150Z,2.50
2023-04-26T22:52:51.633Z,2.57
2023-04-26T22:55:19.418Z,2.48
2023-04-26T22:57:46.978Z,2.43
2023-04-26T23:00:14.976Z,2.60
2023-04-26T23:02:42.465Z,2.56
2023-04-26T23:05:10.473Z,2.81
2023-04-26T23:07:43.553Z,2.85
2023-04-26T23:10:11.520Z,2.86
2023-04-26T23:12:41.007Z,2.79
2023-04-26T23:15:09.879Z,2.94
2023-04-26T23:17:37.471Z,3.11
2023-04-26T23:20:12.504Z,2.90
2023-04-26T23:22:43.886Z,2.92
2023-04-26T23:25:13.142Z,2.72
2023-04-26T23:27:41.679Z,2.87
2023-04-26T23:30:09.381Z,2.85
2023-04-26T23:32:37.549Z,2.93
2023-04-26T23:35:07.108Z,2.97
2023-04-26T23:37:34.562Z,3.10
2023-04-26T23:40:02.116Z,3.14
2023-04-26T23:42:29.456Z,3.11
2023-04-26T23:45:04.773Z,3.17
2023-04-26T23:47:32.267Z,3.17
2023-04-26T23:49:59.493Z,3.22
2023-04-26T23:52:28.068Z,3.11
2023-04-26T23:54:55.410Z,3.13
2023-04-26T23:57:22.888Z,3.15
2023-04-26T23:59:50.346Z,3.43
